Time;durP1;ratioP1;P1;durP2;ratioP2;P2;SDS_P1;SDS_P2;PMS_P1;PMS_P2;Temp;Humidity;BMP_temperature;BMP_pressure;BME280_temperature;BME280_humidity;BME280_pressure;Samples;Min_cycle;Max_cycle;Signal;HPM_P1;HPM_P2
2023/06/28 00:02:13;;;;;;;3.70;2.15;;;23.20;57.40;;;;;;4018923;29;20148;-41
2023/06/28 00:04:55;;;;;;;6.15;2.15;;;23.20;57.40;;;;;;4018823;29;20104;-43
2023/06/28 00:07:38;;;;;;;5.85;2.50;;;23.20;57.40;;;;;;4010403;29;20053;-43
2023/06/28 00:10:19;;;;;;;4.85;2.38;;;23.20;57.50;;;;;;4015438;29;20059;-45
2023/06/28 00:13:00;;;;;;;2.75;2.10;;;23.20;57.50;;;;;;4018788;29;20190;-44
2023/06/28 00:15:40;;;;;;;7.47;2.67;;;23.10;57.40;;;;;;4004196;29;20061;-45
2023/06/28 00:18:21;;;;;;;6.55;2.58;;;23.10;57.50;;;;;;3997326;29;20069;-45
2023/06/28 00:21:03;;;;;;;7.25;2.47;;;23.10;57.50;;;;;;4000494;29;20182;-44
2023/06/28 00:23:47;;;;;;;6.13;2.38;;;23.20;57.60;;;;;;4018348;29;20057;-42
2023/06/28 00:26:27;;;;;;;5.90;2.10;;;23.10;57.60;;;;;;4013168;29;20064;-43
2023/06/28 00:29:08;;;;;;;5.55;2.72;;;23.10;57.60;;;;;;4007257;29;20080;-46
2023/06/28 00:31:50;;;;;;;5.30;2.65;;;23.10;57.60;;;;;;4016314;29;20060;-45
2023/06/28 00:34:31;;;;;;;;;;;23.10;57.60;;;;;;4017974;29;20497;-45
2023/06/28 00:37:12;;;;;;;6.85;2.50;;;23.10;57.70;;;;;;4000864;29;20068;-43
2023/06/28 00:39:55;;;;;;;3.72;2.38;;;23.10;57.80;;;;;;4017447;29;20056;-42
2023/06/28 00:42:36;;;;;;;4.97;2.22;;;23.10;57.90;;;;;;4018054;29;20504;-44
2023/06/28 00:45:17;;;;;;;3.10;2.45;;;23.00;57.90;;;;;;4018300;29;20186;-43
2023/06/28 00:47:59;;;;;;;6.25;2.67;;;23.00;57.90;;;;;;4014435;29;20470;-44
2023/06/28 00:50:41;;;;;;;8.02;3.35;;;23.00;57.90;;;;;;4001940;29;20133;-43
2023/06/28 00:53:22;;;;;;;8.73;3.20;;;23.00;57.90;;;;;;4002904;29;20089;-45
2023/06/28 00:56:05;;;;;;;;;;;23.00;57.90;;;;;;4003287;29;20056;-43
2023/06/28 00:58:46;;;;;;;4.65;2.40;;;23.00;58.00;;;;;;4002470;29;19984;-44
2023/06/28 01:01:28;;;;;;;7.45;3.10;;;23.00;58.00;;;;;;3990829;29;20068;-43
2023/06/28 01:04:09;;;;;;;9.35;2.90;;;23.00;58.00;;;;;;4002653;29;20615;-45
2023/06/28 01:06:53;;;;;;;4.47;2.95;;;23.00;58.00;;;;;;4002659;29;20060;-46
2023/06/28 01:09:34;;;;;;;6.28;2.72;;;23.00;58.10;;;;;;4006448;29;20068;-45
2023/06/28 01:12:17;;;;;;;7.18;2.55;;;23.00;58.20;;;;;;4011632;29;20061;-45
2023/06/28 01:14:59;;;;;;;5.50;3.30;;;22.90;58.10;;;;;;4017166;29;20056;-43
2023/06/28 01:17:40;;;;;;;;;;;22.90;58.10;;;;;;4017572;29;20053;-43
2023/06/28 01:20:21;;;;;;;3.50;2.47;;;22.90;58.20;;;;;;4017722;29;19980;-44
2023/06/28 01:23:05;;;;;;;3.35;2.72;;;22.90;58.30;;;;;;4017354;29;20064;-44
2023/06/28 01:25:46;;;;;;;4.93;2.70;;;22.90;58.30;;;;;;4015063;29;20055;-42
2023/06/28 01:28:27;;;;;;;;;;;22.90;58.40;;;;;;4006955;29;20060;-43
2023/06/28 01:31:08;;;;;;;5.78;3.50;;;22.90;58.40;;;;;;4002400;29;19935;-45
2023/06/28 01:33:49;;;;;;;5.57;2.50;;;22.90;58.60;;;;;;4007778;29;20064;-41
2023/06/28 01:36:31;;;;;;;8.38;2.70;;;22.90;58.40;;;;;;4017270;29;20057;-41
2023/06/28 01:39:13;;;;;;;;;;;22.90;58.50;;;;;;4000295;29;20663;-42
2023/06/28 01:41:55;;;;;;;7.30;2.85;;;22.90;58.40;;;;;;4017281;29;19931;-41
2023/06/28 01:44:38;;;;;;;7.30;3.08;;;22.90;58.50;;;;;;3998275;29;20057;-41
2023/06/28 01:47:19;;;;;;;3.65;2.35;;;22.80;58.50;;;;;;4002032;29;20065;-42
2023/06/28 01:50:01;;;;;;;5.22;2.50;;;22.80;58.50;;;;;;4011526;29;20193;-41
2023/06/28 01:52:43;;;;;;;6.97;2.75;;;22.80;58.60;;;;;;4014164;29;20061;-41
2023/06/28 01:55:25;;;;;;;4.07;2.33;;;22.80;58.60;;;;;;4017277;29;20535;-41
2023/06/28 01:58:06;;;;;;;5.97;3.22;;;22.80;58.60;;;;;;4009460;29;20069;-41
2023/06/28 02:00:47;;;;;;;5.38;2.47;;;22.80;58.70;;;;;;4017286;29;20060;-41
2023/06/28 02:03:28;;;;;;;5.03;2.60;;;22.80;58.70;;;;;;4015955;29;20129;-41
2023/06/28 02:06:09;;;;;;;6.95;3.17;;;22.80;58.80;;;;;;4016770;29;20152;-39
2023/06/28 02:08:51;;;;;;;6.03;2.78;;;22.80;58.80;;;;;;4015514;29;20064;-39
2023/06/28 02:11:34;;;;;;;5.43;2.67;;;22.80;58.80;;;;;;4016152;29;20053;-39
2023/06/28 02:14:15;;;;;;;4.53;2.83;;;22.80;58.80;;;;;;4010038;29;20140;-46
2023/06/28 02:16:56;;;;;;;5.55;2.70;;;22.80;58.80;;;;;;4015647;29;20048;-46
2023/06/28 02:19:38;;;;;;;4.10;2.47;;;22.80;58.80;;;;;;3987854;29;20064;-47
2023/06/28 02:22:19;;;;;;;4.60;2.75;;;22.80;58.80;;;;;;4011254;29;20053;-49
2023/06/28 02:25:00;;;;;;;;;;;22.70;58.80;;;;;;4001654;29;20182;-50
2023/06/28 02:27:42;;;;;;;8.00;3.07;;;22.70;58.80;;;;;;4010120;29;19931;-50
2023/06/28 02:30:23;;;;;;;6.10;3.03;;;22.70;58.90;;;;;;4015354;29;20133;-53
2023/06/28 02:33:04;;;;;;;3.55;2.90;;;22.70;58.90;;;;;;3998517;29;20065;-40
2023/06/28 02:35:46;;;;;;;7.95;3.10;;;22.70;59.00;;;;;;4001143;29;20490;-39
2023/06/28 02:38:26;;;;;;;4.65;2.75;;;22.70;59.00;;;;;;3997375;29;20061;-39
2023/06/28 02:41:07;;;;;;;6.15;3.35;;;22.70;59.00;;;;;;3998834;29;20078;-39
2023/06/28 02:43:52;;;;;;;6.85;2.65;;;22.70;59.10;;;;;;3990314;29;20053;-42
2023/06/28 02:46:33;;;;;;;4.68;2.97;;;22.70;59.10;;;;;;4001399;29;20076;-40
2023/06/28 02:49:14;;;;;;;;;;;22.70;59.10;;;;;;4001526;29;20057;-40
2023/06/28 02:51:56;;;;;;;7.28;3.10;;;22.70;59.10;;;;;;4000801;29;19931;-52
2023/06/28 02:54:37;;;;;;;4.65;3.05;;;22.70;59.20;;;;;;4001192;29;20573;-49
2023/06/28 02:57:18;;;;;;;6.03;3.30;;;22.70;59.20;;;;;;3990101;29;20060;-47
2023/06/28 03:00:05;;;;;;;7.22;3.10;;;22.60;59.10;;;;;;3979918;29;20174;-48
2023/06/28 03:02:46;;;;;;;7.85;3.47;;;22.60;59.20;;;;;;3986102;29;20057;-47
2023/06/28 03:05:27;;;;;;;4.57;2.78;;;22.60;59.10;;;;;;3985498;29;20640;-47
2023/06/28 03:08:09;;;;;;;6.55;2.97;;;22.60;59.20;;;;;;3974960;29;20127;-49
2023/06/28 03:10:50;;;;;;;7.15;3.00;;;22.70;59.20;;;;;;3974893;29;20053;-49
2023/06/28 03:13:31;;;;;;;5.20;2.63;;;22.60;59.20;;;;;;3989011;29;20061;-47
2023/06/28 03:16:13;;;;;;;;;;;22.60;59.30;;;;;;3990472;29;20061;-50
2023/06/28 03:18:55;;;;;;;6.88;3.40;;;22.60;59.20;;;;;;4000839;29;20396;-46
2023/06/28 03:21:37;;;;;;;5.82;3.15;;;22.60;59.30;;;;;;3974595;29;20067;-46
2023/06/28 03:24:19;;;;;;;6.05;3.00;;;22.60;59.30;;;;;;3989739;29;20101;-46
2023/06/28 03:27:00;;;;;;;6.70;3.35;;;22.60;59.30;;;;;;4004166;29;20130;-46
2023/06/28 03:29:41;;;;;;;5.70;3.50;;;22.60;59.40;;;;;;3992728;29;20102;-40
2023/06/28 03:32:24;;;;;;;4.32;2.88;;;22.60;59.60;;;;;;3977320;29;20118;-40
2023/06/28 03:35:06;;;;;;;5.57;3.53;;;22.60;59.50;;;;;;3999543;29;20106;-48
2023/06/28 03:37:50;;;;;;;4.55;3.13;;;22.60;59.60;;;;;;4002135;29;20097;-50
2023/06/28 03:40:31;;;;;;;7.10;3.95;;;22.60;59.60;;;;;;4002626;29;20057;-48
2023/06/28 03:43:12;;;;;;;7.78;3.53;;;22.60;59.80;;;;;;3991850;29;20061;-46
2023/06/28 03:45:53;;;;;;;;;;;22.60;59.80;;;;;;4003560;29;20190;-48
2023/06/28 03:48:36;;;;;;;5.15;3.15;;;22.60;59.70;;;;;;4003024;29;19935;-52
2023/06/28 03:51:17;;;;;;;5.28;3.17;;;22.60;59.80;;;;;;3996497;29;20188;-42
2023/06/28 03:53:58;;;;;;;;;;;22.60;59.70;;;;;;4007040;29;20049;-41
2023/06/28 03:56:41;;;;;;;6.00;3.60;;;22.60;59.80;;;;;;3992045;29;19935;-41
2023/06/28 03:59:22;;;;;;;;;;;22.50;59.80;;;;;;3981305;29;20061;-49
2023/06/28 04:02:04;;;;;;;4.13;2.92;;;22.50;59.80;;;;;;4003427;29;19935;-48
2023/06/28 04:04:46;;;;;;;6.13;3.55;;;22.50;59.90;;;;;;4003411;29;20198;-47
2023/06/28 04:07:28;;;;;;;6.40;3.60;;;22.50;60.00;;;;;;4003334;29;20065;-50
2023/06/28 04:10:10;;;;;;;7.18;3.45;;;22.50;60.00;;;;;;4003650;29;20057;-51
2023/06/28 04:12:51;;;;;;;5.15;3.08;;;22.50;60.00;;;;;;3988320;29;20443;-47
2023/06/28 04:15:32;;;;;;;4.55;3.45;;;22.50;60.20;;;;;;3988217;29;20570;-47
2023/06/28 04:18:13;;;;;;;5.93;3.05;;;22.50;60.20;;;;;;3988897;29;20052;-47
2023/06/28 04:20:56;;;;;;;6.22;3.38;;;22.50;60.20;;;;;;4002661;29;20064;-41
2023/06/28 04:23:38;;;;;;;4.68;3.60;;;22.50;60.30;;;;;;3990110;29;20061;-48
2023/06/28 04:26:19;;;;;;;8.25;3.35;;;22.50;60.30;;;;;;3991120;29;20137;-52
2023/06/28 04:29:00;;;;;;;;;;;22.50;60.40;;;;;;4002887;29;20121;-48
2023/06/28 04:31:41;;;;;;;8.00;3.80;;;22.50;60.50;;;;;;4005507;29;19934;-41
2023/06/28 04:34:22;;;;;;;4.90;3.75;;;22.50;60.50;;;;;;4006098;29;20553;-52
2023/06/28 04:37:10;;;;;;;8.63;3.55;;;22.40;60.60;;;;;;4016612;29;20076;-50
2023/06/28 04:39:55;;;;;;;4.22;2.95;;;22.40;60.60;;;;;;4018147;29;20421;-47
2023/06/28 04:42:36;;;;;;;6.10;3.78;;;22.40;60.60;;;;;;4017834;29;20536;-51
2023/06/28 04:45:17;;;;;;;6.30;3.78;;;22.40;60.70;;;;;;4018218;29;20186;-43
2023/06/28 04:47:58;;;;;;;5.68;3.38;;;22.40;60.80;;;;;;4017766;29;20611;-43
2023/06/28 04:50:39;;;;;;;4.40;3.13;;;22.40;60.90;;;;;;4003129;29;20057;-44
2023/06/28 04:53:22;;;;;;;;;;;22.50;60.90;;;;;;4011485;29;20129;-45
2023/06/28 04:56:03;;;;;;;6.35;3.17;;;22.40;60.90;;;;;;4017057;29;19951;-45
2023/06/28 04:58:45;;;;;;;3.55;3.10;;;22.40;60.90;;;;;;4016748;29;20064;-46
2023/06/28 05:01:26;;;;;;;4.90;3.08;;;22.40;60.90;;;;;;4017704;29;20068;-45
2023/06/28 05:04:07;;;;;;;4.75;2.83;;;22.40;60.90;;;;;;4012154;29;20080;-47
2023/06/28 05:06:51;;;;;;;5.88;3.25;;;22.40;61.00;;;;;;4002811;29;20119;-42
2023/06/28 05:09:35;;;;;;;5.03;2.58;;;22.40;61.10;;;;;;4002488;29;20505;-43
2023/06/28 05:12:16;;;;;;;3.50;2.90;;;22.40;61.20;;;;;;4002557;29;20048;-42
2023/06/28 05:14:56;;;;;;;3.63;2.67;;;22.40;61.30;;;;;;4002428;29;20513;-42
2023/06/28 05:17:38;;;;;;;6.45;2.60;;;22.50;61.30;;;;;;4010515;29;20060;-49
2023/06/28 05:20:18;;;;;;;4.10;2.00;;;22.40;61.30;;;;;;4013269;29;20052;-47
2023/06/28 05:23:09;;;;;;;3.90;1.95;;;22.40;61.30;;;;;;4028757;29;20492;-47
2023/06/28 05:25:52;;;;;;;5.68;1.95;;;22.40;61.30;;;;;;4025058;29;20222;-45
2023/06/28 05:28:33;;;;;;;4.85;2.20;;;22.40;61.20;;;;;;4015594;29;20081;-49
2023/06/28 05:31:14;;;;;;;3.65;2.17;;;22.40;61.20;;;;;;4002110;29;20528;-45
2023/06/28 05:33:55;;;;;;;2.15;1.95;;;22.40;61.20;;;;;;3992478;29;20065;-50
2023/06/28 05:36:36;;;;;;;2.88;1.80;;;22.40;61.20;;;;;;4015975;29;20048;-48
2023/06/28 05:39:17;;;;;;;;;;;22.50;61.00;;;;;;4016858;29;20125;-50
2023/06/28 05:41:59;;;;;;;2.92;1.80;;;22.40;60.90;;;;;;4012505;29;19935;-49
2023/06/28 05:44:40;;;;;;;3.90;2.22;;;22.40;60.90;;;;;;4016535;29;20104;-48
2023/06/28 05:47:21;;;;;;;2.88;1.80;;;22.40;60.90;;;;;;4016644;29;20096;-50
2023/06/28 05:50:02;;;;;;;3.17;2.00;;;22.40;60.90;;;;;;4022583;29;20056;-48
2023/06/28 05:52:44;;;;;;;2.40;1.92;;;22.40;60.90;;;;;;4027647;29;20393;-52
2023/06/28 05:55:26;;;;;;;3.85;1.90;;;22.40;60.90;;;;;;4032017;29;20827;-47
2023/06/28 05:58:08;;;;;;;2.17;1.80;;;22.40;61.00;;;;;;4000905;29;20129;-45
2023/06/28 06:00:49;;;;;;;3.88;1.77;;;22.40;61.10;;;;;;4014624;29;20083;-43
2023/06/28 06:03:31;;;;;;;3.08;1.92;;;22.40;61.20;;;;;;4016475;29;20059;-47
2023/06/28 06:06:12;;;;;;;5.25;2.00;;;22.40;61.20;;;;;;4016115;29;20061;-47
2023/06/28 06:08:53;;;;;;;;;;;22.40;61.20;;;;;;4005214;29;20183;-45
2023/06/28 06:11:36;;;;;;;4.82;2.10;;;22.40;61.20;;;;;;4001484;29;19932;-51
2023/06/28 06:14:18;;;;;;;3.13;1.85;;;22.30;61.20;;;;;;4013433;29;20587;-50
2023/06/28 06:16:59;;;;;;;5.57;2.20;;;22.40;61.40;;;;;;4019684;29;20178;-51
2023/06/28 06:19:40;;;;;;;4.43;2.35;;;22.30;61.50;;;;;;4002978;29;20093;-52
2023/06/28 06:22:21;;;;;;;4.95;2.45;;;22.40;61.60;;;;;;4011217;29;20890;-48
2023/06/28 06:25:02;;;;;;;4.70;1.92;;;22.40;61.70;;;;;;3999479;29;20519;-44
2023/06/28 06:27:44;;;;;;;4.43;2.42;;;22.40;61.70;;;;;;4000958;29;20057;-43
2023/06/28 06:30:26;;;;;;;2.92;1.70;;;22.40;61.90;;;;;;4009739;29;20064;-44
2023/06/28 06:33:08;;;;;;;4.65;2.35;;;22.40;62.00;;;;;;4015637;29;20048;-43
2023/06/28 06:35:49;;;;;;;6.75;3.00;;;22.40;62.00;;;;;;4015115;29;20056;-50
2023/06/28 06:38:30;;;;;;;;;;;22.40;62.10;;;;;;4014623;29;20064;-48
2023/06/28 06:41:11;;;;;;;2.95;2.60;;;22.40;62.10;;;;;;4004078;29;20064;-51
2023/06/28 06:43:52;;;;;;;;;;;22.40;61.90;;;;;;4010872;29;20060;-49
2023/06/28 06:46:36;;;;;;;3.47;2.42;;;22.40;62.10;;;;;;4015990;29;19935;-53
2023/06/28 06:49:18;;;;;;;7.55;2.60;;;22.30;61.90;;;;;;4016278;29;20504;-53
2023/06/28 06:52:00;;;;;;;2.65;2.13;;;22.30;62.20;;;;;;4015917;29;20060;-45
2023/06/28 06:54:41;;;;;;;2.95;2.00;;;22.40;62.50;;;;;;4016537;29;20725;-43
2023/06/28 06:57:22;;;;;;;;;;;22.30;62.50;;;;;;4016556;29;20061;-47
2023/06/28 07:00:05;;;;;;;2.38;2.17;;;22.30;62.40;;;;;;4014988;29;19935;-43
2023/06/28 07:02:48;;;;;;;4.07;2.40;;;22.30;62.40;;;;;;4002860;29;20053;-45
2023/06/28 07:05:30;;;;;;;4.18;2.33;;;22.30;62.70;;;;;;4006867;29;20102;-44
2023/06/28 07:08:11;;;;;;;3.17;2.67;;;22.30;62.80;;;;;;4001138;29;20195;-45
2023/06/28 07:10:52;;;;;;;5.45;3.10;;;22.30;62.80;;;;;;4011352;29;20218;-45
2023/06/28 07:13:33;;;;;;;6.20;3.45;;;22.40;62.90;;;;;;4014363;29;20186;-45
2023/06/28 07:16:14;;;;;;;6.28;3.22;;;22.40;62.90;;;;;;4001564;29;20061;-46
2023/06/28 07:18:56;;;;;;;7.00;4.03;;;22.40;63.00;;;;;;4002951;29;20061;-43
2023/06/28 07:21:38;;;;;;;6.85;3.95;;;22.40;63.00;;;;;;4011253;29;20057;-46
2023/06/28 07:24:18;;;;;;;4.72;3.88;;;22.30;63.00;;;;;;4000356;29;20060;-44
2023/06/28 07:27:00;;;;;;;5.15;3.78;;;22.40;63.10;;;;;;4013014;29;20049;-45
2023/06/28 07:29:41;;;;;;;5.32;4.40;;;22.40;63.10;;;;;;4015974;29;20049;-43
2023/06/28 07:32:22;;;;;;;;;;;22.40;63.30;;;;;;4016048;29;20061;-45
2023/06/28 07:35:05;;;;;;;8.60;4.53;;;22.40;63.20;;;;;;4015858;29;20283;-43
2023/06/28 07:37:47;;;;;;;6.10;4.25;;;22.40;63.20;;;;;;4015548;29;20512;-45
2023/06/28 07:40:28;;;;;;;6.88;3.92;;;22.40;63.40;;;;;;4015834;29;20069;-47
2023/06/28 07:43:09;;;;;;;6.47;4.20;;;22.40;63.60;;;;;;4015882;29;20606;-48
2023/06/28 07:45:51;;;;;;;7.10;4.45;;;22.30;63.60;;;;;;4015840;29;20053;-49
2023/06/28 07:48:32;;;;;;;8.07;4.75;;;22.40;64.60;;;;;;4012701;29;20139;-51
2023/06/28 07:51:15;;;;;;;8.75;5.00;;;22.30;64.30;;;;;;4000873;29;20060;-49
2023/06/28 07:53:56;;;;;;;6.97;4.68;;;22.30;63.90;;;;;;4000516;29;20525;-47
2023/06/28 07:56:36;;;;;;;8.85;4.22;;;22.30;64.00;;;;;;4000372;29;20069;-49
2023/06/28 07:59:20;;;;;;;5.03;4.13;;;22.30;64.00;;;;;;3989030;29;20522;-49
2023/06/28 08:02:01;;;;;;;7.88;4.65;;;22.40;64.10;;;;;;4000489;29;20064;-48
2023/06/28 08:04:42;;;;;;;6.90;4.43;;;22.40;64.30;;;;;;4001207;29;20060;-48
2023/06/28 08:07:24;;;;;;;8.65;4.95;;;22.40;64.30;;;;;;4000322;29;20141;-42
2023/06/28 08:10:06;;;;;;;9.63;5.10;;;22.40;64.40;;;;;;4000550;29;20406;-42
2023/06/28 08:12:47;;;;;;;9.93;4.75;;;22.40;64.60;;;;;;4018319;29;20493;-49
2023/06/28 08:15:33;;;;;;;6.85;4.50;;;22.40;65.00;;;;;;4016008;29;20522;-44
2023/06/28 08:18:16;;;;;;;9.43;4.70;;;22.40;65.30;;;;;;4031447;29;20506;-45
2023/06/28 08:20:57;;;;;;;7.70;4.82;;;22.40;65.50;;;;;;4022182;29;20056;-49
2023/06/28 08:23:39;;;;;;;5.47;4.45;;;22.40;65.90;;;;;;4018610;29;20056;-44
2023/06/28 08:26:20;;;;;;;6.93;4.85;;;22.40;66.20;;;;;;4015930;29;20127;-45
2023/06/28 08:29:02;;;;;;;6.45;4.25;;;22.40;66.00;;;;;;4005246;29;20064;-42
2023/06/28 08:31:42;;;;;;;6.50;4.28;;;22.40;66.20;;;;;;4014570;29;20091;-44
2023/06/28 08:34:23;;;;;;;9.35;4.82;;;22.50;66.50;;;;;;4017178;29;20061;-45
2023/06/28 08:37:06;;;;;;;6.82;4.50;;;22.40;66.70;;;;;;3996882;29;20063;-43
2023/06/28 08:39:48;;;;;;;4.75;3.95;;;22.50;67.00;;;;;;4017829;29;20059;-45
2023/06/28 08:42:29;;;;;;;4.97;4.40;;;22.40;67.00;;;;;;4008437;29;20068;-43
2023/06/28 08:45:12;;;;;;;5.45;4.57;;;22.40;67.10;;;;;;4016840;29;20060;-46
2023/06/28 08:47:54;;;;;;;5.32;4.05;;;22.50;67.50;;;;;;4017585;29;20060;-42
2023/06/28 08:50:36;;;;;;;6.68;4.53;;;22.50;67.90;;;;;;4002951;29;20068;-44
2023/06/28 08:53:21;;;;;;;6.10;4.13;;;22.40;67.70;;;;;;4011334;29;20158;-43
2023/06/28 08:56:05;;;;;;;7.47;4.70;;;22.50;67.70;;;;;;4018191;29;20052;-45
2023/06/28 08:58:48;;;;;;;8.23;4.70;;;22.50;67.90;;;;;;4018091;29;20599;-44
2023/06/28 09:01:30;;;;;;;7.38;4.82;;;22.50;68.00;;;;;;4017919;29;20072;-47
2023/06/28 09:04:11;;;;;;;6.55;4.07;;;22.50;68.20;;;;;;4017588;29;20117;-44
2023/06/28 09:06:52;;;;;;;9.13;4.40;;;22.50;68.10;;;;;;4017646;29;20220;-45
2023/06/28 09:09:36;;;;;;;7.80;4.97;;;22.50;68.20;;;;;;4017513;29;20056;-44
2023/06/28 09:12:20;;;;;;;7.68;4.97;;;22.40;68.20;;;;;;4005907;29;20056;-50
2023/06/28 09:15:02;;;;;;;7.22;4.43;;;22.50;68.30;;;;;;4017507;29;20117;-51
2023/06/28 09:17:43;;;;;;;8.50;4.65;;;22.50;68.40;;;;;;4005443;29;20064;-51
2023/06/28 09:20:25;;;;;;;10.05;5.00;;;22.50;68.50;;;;;;4017282;29;20137;-50
2023/06/28 09:23:06;;;;;;;6.28;4.47;;;22.50;68.60;;;;;;4016351;29;20511;-49
2023/06/28 09:25:50;;;;;;;7.97;4.70;;;22.40;68.60;;;;;;4017040;29;20361;-53
2023/06/28 09:28:34;;;;;;;9.20;5.07;;;22.40;68.80;;;;;;4016711;29;20056;-53
2023/06/28 09:31:19;;;;;;;5.00;4.43;;;22.50;69.00;;;;;;4005613;29;20121;-49
2023/06/28 09:34:00;;;;;;;6.88;4.63;;;22.50;69.20;;;;;;4003053;29;20061;-53
2023/06/28 09:36:41;;;;;;;6.70;4.63;;;22.50;69.20;;;;;;4020743;29;20048;-52
2023/06/28 09:39:22;;;;;;;7.47;5.00;;;22.40;69.40;;;;;;4029366;29;20056;-50
2023/06/28 09:42:04;;;;;;;6.07;4.68;;;22.50;69.60;;;;;;4023146;29;20521;-53
2023/06/28 09:44:55;;;;;;;;;;;22.50;69.40;;;;;;4017735;29;20202;-51
2023/06/28 09:47:35;;;;;;;5.72;4.65;;;22.50;69.10;;;;;;4017024;29;20401;-47
2023/06/28 09:50:16;;;;;;;5.47;4.55;;;22.50;68.90;;;;;;4032478;29;20059;-45
2023/06/28 09:52:57;;;;;;;6.60;4.43;;;22.50;69.30;;;;;;4020889;29;20189;-44
2023/06/28 09:55:39;;;;;;;5.30;4.70;;;22.40;69.20;;;;;;4032640;29;20200;-45
2023/06/28 09:58:21;;;;;;;7.07;4.60;;;22.50;69.60;;;;;;4032633;29;20623;-42
2023/06/28 10:01:04;;;;;;;7.82;5.15;;;22.50;69.70;;;;;;4032326;29;20059;-50
2023/06/28 10:03:46;;;;;;;6.60;4.60;;;22.40;69.90;;;;;;4020912;29;20077;-50
2023/06/28 10:06:30;;;;;;;5.82;4.20;;;22.50;70.00;;;;;;4031989;29;20064;-47
2023/06/28 10:09:15;;;;;;;5.85;4.80;;;22.50;70.40;;;;;;4032145;29;20064;-47
2023/06/28 10:11:58;;;;;;;7.95;5.50;;;22.50;70.50;;;;;;4032443;29;20056;-48
2023/06/28 10:14:42;;;;;;;5.32;4.82;;;22.50;70.60;;;;;;4032131;29;20055;-47
2023/06/28 10:17:25;;;;;;;5.57;4.85;;;22.50;70.50;;;;;;4031962;29;20197;-50
2023/06/28 10:20:08;;;;;;;7.65;5.43;;;22.50;70.60;;;;;;4032182;29;20081;-51
2023/06/28 10:22:50;;;;;;;8.25;5.93;;;22.50;70.60;;;;;;4031647;29;20136;-42
2023/06/28 10:25:32;;;;;;;8.45;5.88;;;22.50;70.90;;;;;;4020518;29;20093;-43
2023/06/28 10:28:14;;;;;;;6.95;6.00;;;22.50;70.70;;;;;;4004144;29;20056;-42
2023/06/28 10:30:55;;;;;;;7.22;6.57;;;22.40;70.80;;;;;;4016313;29;20057;-48
2023/06/28 10:33:38;;;;;;;;;;;22.50;71.00;;;;;;4014742;29;20129;-44
2023/06/28 10:36:19;;;;;;;9.00;7.82;;;22.40;70.60;;;;;;4016864;29;19935;-42
2023/06/28 10:39:00;;;;;;;9.00;8.02;;;22.50;70.50;;;;;;4016672;29;20059;-44
2023/06/28 10:41:42;;;;;;;9.10;7.03;;;22.50;70.80;;;;;;4013980;29;20129;-43
2023/06/28 10:44:24;;;;;;;10.50;8.90;;;22.40;70.90;;;;;;4015863;29;20109;-48
2023/06/28 10:47:12;;;;;;;11.90;8.23;;;22.40;71.30;;;;;;4016034;29;20077;-48
2023/06/28 10:50:09;;;;;;;10.23;7.55;;;22.40;71.80;;;;;;4015995;29;20068;-51
2023/06/28 10:52:53;;;;;;;11.63;7.72;;;22.50;71.80;;;;;;4015636;29;20413;-45
2023/06/28 10:55:36;;;;;;;11.35;8.27;;;22.50;71.50;;;;;;4016131;29;20130;-47
2023/06/28 10:58:26;;;;;;;10.73;8.88;;;22.50;71.40;;;;;;4015595;29;20061;-50
2023/06/28 11:01:10;;;;;;;13.02;9.15;;;22.50;71.40;;;;;;4001222;29;20061;-46
2023/06/28 11:03:52;;;;;;;11.18;8.73;;;22.50;71.50;;;;;;4000636;29;20052;-44
2023/06/28 11:06:34;;;;;;;11.80;8.88;;;22.50;71.50;;;;;;4014924;29;20108;-48
2023/06/28 11:09:17;;;;;;;10.45;8.65;;;22.50;71.60;;;;;;4016511;29;20101;-50
2023/06/28 11:12:00;;;;;;;13.20;9.27;;;22.50;71.80;;;;;;4016020;29;20072;-49
2023/06/28 11:14:42;;;;;;;12.63;8.80;;;22.50;71.80;;;;;;4016423;29;20060;-52
2023/06/28 11:17:23;;;;;;;12.95;8.95;;;22.50;71.60;;;;;;4015550;29;20068;-49
2023/06/28 11:20:08;;;;;;;13.38;8.85;;;22.50;71.70;;;;;;4000572;29;20608;-46
2023/06/28 11:22:52;;;;;;;12.50;9.18;;;22.50;71.90;;;;;;4000323;29;20516;-46
2023/06/28 11:25:33;;;;;;;15.35;8.98;;;22.50;72.10;;;;;;4000447;29;20053;-47
2023/06/28 11:28:14;;;;;;;11.15;9.25;;;22.50;72.10;;;;;;4009675;29;20081;-43
2023/06/28 11:30:56;;;;;;;11.25;9.32;;;22.50;72.20;;;;;;4006932;29;20068;-47
2023/06/28 11:33:38;;;;;;;11.30;9.15;;;22.50;72.30;;;;;;4012750;29;20075;-42
2023/06/28 11:36:19;;;;;;;13.23;9.52;;;22.50;72.30;;;;;;4016299;29;20053;-45
2023/06/28 11:39:03;;;;;;;13.15;10.07;;;22.50;72.40;;;;;;4015733;29;20132;-43
2023/06/28 11:41:44;;;;;;;14.13;9.68;;;22.40;72.50;;;;;;4016377;29;20061;-48
2023/06/28 11:44:25;;;;;;;;;;;22.40;72.50;;;;;;4014111;29;20059;-44
2023/06/28 11:47:06;;;;;;;16.10;11.27;;;22.40;72.30;;;;;;4018011;29;19931;-44
2023/06/28 11:49:48;;;;;;;13.35;10.50;;;22.40;72.30;;;;;;4018789;29;20558;-42
2023/06/28 11:52:29;;;;;;;15.23;10.00;;;22.40;71.80;;;;;;4019270;29;20068;-44
2023/06/28 11:55:14;;;;;;;;;;;22.40;72.70;;;;;;4019612;29;20048;-44
2023/06/28 11:57:55;;;;;;;13.65;10.23;;;22.40;72.50;;;;;;4019421;29;20395;-43
2023/06/28 12:00:39;;;;;;;12.57;10.40;;;22.40;72.50;;;;;;4019321;29;20049;-43
2023/06/28 12:03:30;;;;;;;16.95;10.95;;;22.40;73.90;;;;;;4018859;29;20595;-44
2023/06/28 12:06:12;;;;;;;13.50;10.55;;;22.40;73.30;;;;;;4019255;29;20052;-43
2023/06/28 12:08:53;;;;;;;12.93;10.07;;;22.40;73.10;;;;;;4018795;29;20056;-43
2023/06/28 12:11:35;;;;;;;13.60;10.25;;;22.40;73.30;;;;;;4005541;29;20587;-44
2023/06/28 12:14:17;;;;;;;11.50;10.30;;;22.40;73.40;;;;;;4018953;29;20106;-43
2023/06/28 12:16:58;;;;;;;15.02;10.23;;;22.40;73.40;;;;;;4017859;29;20061;-43
2023/06/28 12:19:41;;;;;;;12.35;9.68;;;22.40;73.50;;;;;;4018793;29;20065;-43
2023/06/28 12:22:23;;;;;;;10.60;9.27;;;22.40;73.50;;;;;;4017379;29;20053;-43
2023/06/28 12:25:04;;;;;;;10.65;9.07;;;22.40;73.50;;;;;;4018699;29;20097;-47
2023/06/28 12:28:02;;;;;;;14.50;9.15;;;22.40;73.50;;;;;;4018588;29;20888;-52
2023/06/28 12:30:43;;;;;;;11.93;9.85;;;22.40;73.90;;;;;;4017693;29;20076;-48
2023/06/28 12:33:24;;;;;;;12.88;9.30;;;22.40;73.60;;;;;;4017477;29;20194;-51
2023/06/28 12:36:05;;;;;;;11.82;8.75;;;22.40;73.50;;;;;;4019129;29;20181;-48
2023/06/28 12:38:46;;;;;;;;;;;22.40;73.60;;;;;;4033796;29;20489;-43
2023/06/28 12:41:27;;;;;;;15.35;10.85;;;22.40;73.40;;;;;;4020097;29;20041;-43
2023/06/28 12:44:18;;;;;;;11.52;9.68;;;22.40;73.40;;;;;;4008255;29;20052;-45
2023/06/28 12:46:59;;;;;;;10.70;9.20;;;22.40;74.00;;;;;;4015901;29;20076;-44
2023/06/28 12:49:41;;;;;;;11.00;9.32;;;22.40;73.90;;;;;;4017605;29;20505;-42
2023/06/28 12:52:23;;;;;;;11.32;9.43;;;22.30;73.90;;;;;;4003019;29;20422;-44
2023/06/28 12:55:05;;;;;;;11.98;9.57;;;22.40;74.30;;;;;;4002855;29;20060;-46
2023/06/28 12:57:46;;;;;;;13.80;9.40;;;22.40;74.40;;;;;;4002255;29;20186;-47
2023/06/28 13:00:29;;;;;;;12.55;9.18;;;22.40;74.30;;;;;;4007001;29;20056;-45
2023/06/28 13:03:10;;;;;;;10.85;9.75;;;22.40;74.30;;;;;;4018348;29;20048;-44
2023/06/28 13:05:51;;;;;;;11.77;9.60;;;22.40;74.30;;;;;;4018095;29;20122;-44
2023/06/28 13:08:32;;;;;;;11.35;9.88;;;22.40;74.10;;;;;;4016909;29;20072;-43
2023/06/28 13:11:13;;;;;;;14.20;10.82;;;22.40;74.10;;;;;;4017586;29;20397;-47
2023/06/28 13:13:55;;;;;;;11.90;9.90;;;22.40;74.10;;;;;;4017860;29;20060;-43
2023/06/28 13:16:37;;;;;;;13.40;10.30;;;22.40;74.20;;;;;;4017725;29;20123;-45
2023/06/28 13:19:18;;;;;;;11.75;10.15;;;22.40;74.30;;;;;;4017275;29;20546;-45
2023/06/28 13:21:59;;;;;;;11.35;9.32;;;22.40;74.30;;;;;;4017757;29;20073;-44
2023/06/28 13:24:40;;;;;;;14.30;10.18;;;22.40;74.30;;;;;;4006304;29;20061;-43
2023/06/28 13:27:21;;;;;;;11.80;10.57;;;22.40;74.50;;;;;;3991055;29;20106;-46
2023/06/28 13:30:02;;;;;;;12.95;10.48;;;22.40;74.70;;;;;;4002169;29;20064;-44
2023/06/28 13:32:45;;;;;;;13.95;11.23;;;22.40;74.90;;;;;;4001783;29;20053;-43
2023/06/28 13:35:26;;;;;;;14.18;11.40;;;22.40;75.00;;;;;;4001465;29;20726;-45
2023/06/28 13:38:07;;;;;;;15.77;12.18;;;22.40;75.20;;;;;;4013658;29;20178;-43
2023/06/28 13:40:48;;;;;;;14.15;11.65;;;22.40;75.20;;;;;;4001998;29;20514;-43
2023/06/28 13:43:29;;;;;;;13.60;10.65;;;22.40;75.30;;;;;;4003897;29;20068;-43
2023/06/28 13:46:10;;;;;;;12.70;11.35;;;22.40;75.20;;;;;;4016992;29;20068;-44
2023/06/28 13:48:52;;;;;;;13.10;11.70;;;22.40;75.40;;;;;;4008775;29;20057;-45
2023/06/28 13:51:33;;;;;;;13.93;11.27;;;22.40;75.40;;;;;;4001649;29;20049;-49
2023/06/28 13:54:14;;;;;;;12.32;11.02;;;22.40;75.50;;;;;;4002022;29;20109;-44
2023/06/28 13:56:55;;;;;;;13.63;11.43;;;22.50;75.50;;;;;;4001867;29;20056;-45
2023/06/28 13:59:37;;;;;;;12.63;11.13;;;22.50;76.30;;;;;;4001821;29;20077;-44
2023/06/28 14:02:18;;;;;;;15.48;12.45;;;22.50;75.40;;;;;;4000924;29;20052;-44
2023/06/28 14:05:01;;;;;;;13.57;12.20;;;22.50;75.60;;;;;;4002232;29;20084;-47
2023/06/28 14:07:42;;;;;;;14.43;12.85;;;22.50;75.90;;;;;;3990361;29;20554;-44